Norwegian Dream — C6LG5 — position and weather

sailwx.info

Track history (hours):
 
Tides and Currents Weather Stations Pressure Air Temp Water Temp Dewpoint Dewpoint Depression Visibility Wind Speed Wind Dir Waves Ship Positions

Norwegian Dream

Operator: Norwegian Cruise Line

Last reported at 2018-Nov-13 18:00 UTC. Time now 2018-Nov-14 03:20 UTC.
Position N 04°24' E 100°12'.

Type: Ship. MMSI: 308272000.

Wind from 100 at 14 knots

Barometer 1010.0 mb
Air temperature 27.0 ° C
Visibility: greater than 5.4 NM
Dewpoint 27.0 ° C
Water temperature 27.0 ° C

Date/timePositionNaut miles runAvg speedWind from/ knotsBaromVisibWave heightAir tempDewpointWater temp
2018-Nov-13 18:00N 04°24' E 100°12'223 9.3 100 / 141010.0 5.4 27.027.027.0
2018-Nov-12 18:00N 07°24' E 098°00'173 7.2 130 / 81011.0 5.4 28.028.028.0
2018-Nov-11 18:00N 05°00' E 099°36'47 1.9 040 / 81012.0 5.4 28.028.028.0
2018-Nov-10 18:00N 04°24' E 100°06'219 9.1 080 / 141011.0 5.4 28.028.028.0
2018-Nov-09 18:00N 07°24' E 098°00'181 7.5 070 / 191010.0 5.4 27.027.027.0
2018-Nov-08 18:00N 04°54' E 099°42'   020 / 81009.0 5.4 28.028.028.0
2018-Nov-04 12:05N 01°15' E 103°24'617.9
2018-Nov-04 11:46N 01°14' E 103°30'518.0
2018-Nov-04 11:30N 01°12' E 103°34'818.1
2018-Nov-04 11:03N 01°10' E 103°42'112.3
2018-Nov-04 11:00N 01°09' E 103°42'917.5
2018-Nov-04 10:31N 01°12' E 103°51'4 8.7
2018-Nov-04 10:02N 01°15' E 103°54'0 0.2
2018-Nov-04 09:58N 01°15' E 103°54'0 0.1
2018-Nov-04 09:30N 01°15' E 103°53'0 0.1
2018-Nov-04 09:03N 01°15' E 103°53'0 0.1
2018-Nov-04 08:40N 01°15' E 103°53'0 0.1
2018-Nov-04 08:10N 01°15' E 103°53'0 0.0
2018-Nov-04 07:58N 01°15' E 103°53'0 0.1
2018-Nov-04 07:27N 01°15' E 103°53'0 0.1
2018-Nov-04 06:59N 01°15' E 103°53'0 0.0
2018-Nov-04 06:30N 01°15' E 103°53'0 0.1
2018-Nov-04 06:02N 01°15' E 103°53'0 0.0
2018-Nov-04 05:59N 01°15' E 103°53'0 0.0
2018-Nov-04 05:26N 01°15' E 103°53'0 0.0
2018-Nov-04 05:01N 01°15' E 103°53'0 0.0
2018-Nov-04 04:58N 01°15' E 103°53'0 0.0
2018-Nov-04 04:27N 01°15' E 103°53'0 0.0
2018-Nov-04 04:02N 01°15' E 103°53'0 0.0
2018-Nov-04 03:57N 01°15' E 103°53'0 0.0
2018-Nov-04 03:29N 01°15' E 103°53'0 0.0
2018-Nov-04 03:02N 01°15' E 103°53'0 0.0
2018-Nov-04 02:59N 01°15' E 103°53'0 0.0
2018-Nov-04 02:29N 01°15' E 103°53'0 0.0
2018-Nov-04 02:01N 01°15' E 103°53'0 0.0
2018-Nov-04 01:56N 01°15' E 103°53'0 0.0
2018-Nov-04 01:29N 01°15' E 103°53'0 0.0
2018-Nov-04 00:59N 01°15' E 103°53'0 0.2
2018-Nov-04 00:30N 01°15' E 103°54'2 3.4
2018-Nov-04 00:03N 01°14' E 103°54'0 2.6
2018-Nov-04 00:00N 01°14' E 103°55'5 9.8
2018-Nov-03 23:30N 01°15' E 103°59'612.5
2018-Nov-03 23:03N 01°16' E 104°05'111.2
2018-Nov-03 23:00N 01°16' E 104°06'612.8
2018-Nov-03 22:30N 01°17' E 104°12'2813.8
2018-Nov-03 20:28N 01°33' E 104°35'715.6
2018-Nov-03 20:01N 01°39' E 104°37'  
Track history (hours):
 
Tides and Currents Weather Stations Pressure Air Temp Water Temp Dewpoint Dewpoint Depression Visibility Wind Speed Wind Dir Waves Ship Positions

Norwegian Dream

Operator: Norwegian Cruise Line

Last reported at 2018-Nov-13 18:00 UTC. Time now 2018-Nov-14 03:20 UTC.
Position N 04°24' E 100°12'.

Type: Ship. MMSI: 308272000.

Wind from 100 at 14 knots

Barometer 1010.0 mb
Air temperature 27.0 ° C
Visibility: greater than 5.4 NM
Dewpoint 27.0 ° C
Water temperature 27.0 ° C

Date/timePositionNaut miles runAvg speedWind from/ knotsBaromVisibWave heightAir tempDewpointWater temp
2018-Nov-13 18:00N 04°24' E 100°12'223 9.3 100 / 141010.0 5.4 27.027.027.0
2018-Nov-12 18:00N 07°24' E 098°00'173 7.2 130 / 81011.0 5.4 28.028.028.0
2018-Nov-11 18:00N 05°00' E 099°36'47 1.9 040 / 81012.0 5.4 28.028.028.0
2018-Nov-10 18:00N 04°24' E 100°06'219 9.1 080 / 141011.0 5.4 28.028.028.0
2018-Nov-09 18:00N 07°24' E 098°00'181 7.5 070 / 191010.0 5.4 27.027.027.0
2018-Nov-08 18:00N 04°54' E 099°42'   020 / 81009.0 5.4 28.028.028.0
2018-Nov-04 12:05N 01°15' E 103°24'617.9
2018-Nov-04 11:46N 01°14' E 103°30'518.0
2018-Nov-04 11:30N 01°12' E 103°34'818.1
2018-Nov-04 11:03N 01°10' E 103°42'112.3
2018-Nov-04 11:00N 01°09' E 103°42'917.5
2018-Nov-04 10:31N 01°12' E 103°51'4 8.7
2018-Nov-04 10:02N 01°15' E 103°54'0 0.2
2018-Nov-04 09:58N 01°15' E 103°54'0 0.1
2018-Nov-04 09:30N 01°15' E 103°53'0 0.1
2018-Nov-04 09:03N 01°15' E 103°53'0 0.1
2018-Nov-04 08:40N 01°15' E 103°53'0 0.1
2018-Nov-04 08:10N 01°15' E 103°53'0 0.0
2018-Nov-04 07:58N 01°15' E 103°53'0 0.1
2018-Nov-04 07:27N 01°15' E 103°53'0 0.1
2018-Nov-04 06:59N 01°15' E 103°53'0 0.0
2018-Nov-04 06:30N 01°15' E 103°53'0 0.1
2018-Nov-04 06:02N 01°15' E 103°53'0 0.0
2018-Nov-04 05:59N 01°15' E 103°53'0 0.0
2018-Nov-04 05:26N 01°15' E 103°53'0 0.0
2018-Nov-04 05:01N 01°15' E 103°53'0 0.0
2018-Nov-04 04:58N 01°15' E 103°53'0 0.0
2018-Nov-04 04:27N 01°15' E 103°53'0 0.0
2018-Nov-04 04:02N 01°15' E 103°53'0 0.0
2018-Nov-04 03:57N 01°15' E 103°53'0 0.0
2018-Nov-04 03:29N 01°15' E 103°53'0 0.0
2018-Nov-04 03:02N 01°15' E 103°53'0 0.0
2018-Nov-04 02:59N 01°15' E 103°53'0 0.0
2018-Nov-04 02:29N 01°15' E 103°53'0 0.0
2018-Nov-04 02:01N 01°15' E 103°53'0 0.0
2018-Nov-04 01:56N 01°15' E 103°53'0 0.0
2018-Nov-04 01:29N 01°15' E 103°53'0 0.0
2018-Nov-04 00:59N 01°15' E 103°53'0 0.2
2018-Nov-04 00:30N 01°15' E 103°54'2 3.4
2018-Nov-04 00:03N 01°14' E 103°54'0 2.6
2018-Nov-04 00:00N 01°14' E 103°55'5 9.8
2018-Nov-03 23:30N 01°15' E 103°59'612.5
2018-Nov-03 23:03N 01°16' E 104°05'111.2
2018-Nov-03 23:00N 01°16' E 104°06'612.8
2018-Nov-03 22:30N 01°17' E 104°12'2813.8
2018-Nov-03 20:28N 01°33' E 104°35'715.6
2018-Nov-03 20:01N 01°39' E 104°37'  

Dump ship's entire track history